KFXE

Fort Lauderdale Executive Airport

Fort Lauderdale, Florida, USA
KFXE 240325Z 2403/2424 VRB03KT P6SM BKN250 FM241300 34006KT P6SM FEW050 BKN100 FM241900 04008KT P6SM SCT050 BKN100
Issued Valid From Valid To
Oct-24 @ 03:25 UTC
(2 hours ago)
Oct-24 @ 03:00 UTC
(2 hours ago)
Oct-25 @ 00:00 UTC
(in 19 hours)
Oct-24 @ 03:00 to Oct-24 @ 13:00
KFXE 240325Z 2403/2424 VRB03KT P6SM BKN250
Wind Visibility Clouds
Variable at 3 knots Greater than 6 miles
  • Broken at 25,000' AGL
From Oct-24 @ 13:00 to Oct-24 @ 19:00
FM241300 34006KT P6SM FEW050 BKN100
Wind Visibility Clouds
340° at 6 knots Greater than 6 miles
  • Few at 5,000' AGL
  • Broken at 10,000' AGL
From Oct-24 @ 19:00 to Oct-25 @ 00:00
FM241900 04008KT P6SM SCT050 BKN100
Wind Visibility Clouds
40° at 8 knots Greater than 6 miles
  • Scattered at 5,000' AGL
  • Broken at 10,000' AGL
KFXE 240325Z 2403/2424 VRB03KT P6SM BKN250 FM241300 34006KT P6SM FEW050 BKN100 FM241900 04008KT P6SM SCT050 BKN100
Issued Oct-24 @ 03:25 UTC
(2 hours ago)
Valid From Oct-24 @ 03:00 UTC
(2 hours ago)
Valid To Oct-25 @ 00:00 UTC
(in 19 hours)
Oct-24 @ 03:00 - Oct-24 @ 13:00
Wind Visibility
Variable at 3 knots Greater than 6 miles
Clouds
  • Broken at 25,000' AGL
From Oct-24 @ 13:00 - Oct-24 @ 19:00
Wind Visibility
340° at 6 knots Greater than 6 miles
Clouds
  • Few at 5,000' AGL
  • Broken at 10,000' AGL
From Oct-24 @ 19:00 - Oct-25 @ 00:00
Wind Visibility
40° at 8 knots Greater than 6 miles
Clouds
  • Scattered at 5,000' AGL
  • Broken at 10,000' AGL